createdAt,value
2019-02-22T00:01:43.303Z,98544.23
2019-02-22T00:04:10.186Z,98531.13
2019-02-22T00:06:36.905Z,98528.95
2019-02-22T00:09:04.849Z,98530.25
2019-02-22T00:11:31.718Z,98526.78
2019-02-22T00:13:58.518Z,98530.48
2019-02-22T00:16:25.403Z,98522.96
2019-02-22T00:18:52.205Z,98528.55
2019-02-22T00:21:18.906Z,98525.55
2019-02-22T00:23:45.728Z,98522.14
2019-02-22T00:26:12.524Z,98516.44
2019-02-22T00:28:39.394Z,98512.56
2019-02-22T00:31:06.218Z,98513.62
2019-02-22T00:33:35.033Z,98510.38
2019-02-22T00:36:02.004Z,98511.33
2019-02-22T00:38:28.766Z,98510.27
2019-02-22T00:40:55.676Z,98516.67
2019-02-22T00:43:22.497Z,98519.09
2019-02-22T00:45:49.313Z,98522.42
2019-02-22T00:48:16.101Z,98524.77
2019-02-22T00:50:42.893Z,98531.23
2019-02-22T00:53:09.769Z,98524.18
2019-02-22T00:55:36.753Z,98524.08
2019-02-22T00:58:03.634Z,98514.56
2019-02-22T01:00:30.316Z,98511.21
2019-02-22T01:02:57.106Z,98519.61
2019-02-22T01:05:23.957Z,98518.55
2019-02-22T01:07:50.659Z,98520.08
2019-02-22T01:10:17.652Z,98521.66
2019-02-22T01:12:44.414Z,98529.00
2019-02-22T01:15:11.121Z,98525.77
2019-02-22T01:17:37.818Z,98523.14
2019-02-22T01:20:04.820Z,98515.86
2019-02-22T01:22:31.606Z,98513.98
2019-02-22T01:24:58.429Z,98512.98
2019-02-22T01:27:25.285Z,98506.29
2019-02-22T01:29:51.905Z,98500.83
2019-02-22T01:32:18.578Z,98505.09
2019-02-22T01:34:45.459Z,98503.16
2019-02-22T01:37:12.398Z,98499.46
2019-02-22T01:39:39.350Z,98497.05
2019-02-22T01:42:06.029Z,98499.52
2019-02-22T01:44:32.752Z,98503.64
2019-02-22T01:46:59.532Z,98499.31
2019-02-22T01:49:26.310Z,98502.61
2019-02-22T01:51:53.130Z,98498.96
2019-02-22T01:54:19.929Z,98499.78
2019-02-22T01:56:46.814Z,98499.61
2019-02-22T01:59:13.713Z,98499.78
2019-02-22T02:01:40.423Z,98499.78
2019-02-22T02:04:07.285Z,98498.25
2019-02-22T02:06:34.040Z,98500.43
2019-02-22T02:09:03.903Z,98512.66
2019-02-22T02:11:30.640Z,98504.59
2019-02-22T02:13:57.337Z,98506.13
2019-02-22T02:16:24.042Z,98501.83
2019-02-22T02:18:50.843Z,98508.12
2019-02-22T02:21:17.689Z,98504.94
2019-02-22T02:23:44.781Z,98508.23
2019-02-22T02:26:11.623Z,98510.52
2019-02-22T02:28:38.363Z,98506.11
2019-02-22T02:31:05.089Z,98502.34
2019-02-22T02:33:32.113Z,98509.98
2019-02-22T02:35:59.006Z,98514.92
2019-02-22T02:38:25.838Z,98508.22
2019-02-22T02:40:52.780Z,98513.76
2019-02-22T02:43:19.639Z,98520.52
2019-02-22T02:45:48.414Z,98511.11
2019-02-22T02:48:15.132Z,98509.57
2019-02-22T02:50:41.887Z,98513.63
2019-02-22T02:53:08.843Z,98512.63
2019-02-22T02:55:35.738Z,98507.73
2019-02-22T02:58:02.528Z,98508.27
2019-02-22T03:00:29.274Z,98518.56
2019-02-22T03:02:55.983Z,98511.22
2019-02-22T03:05:33.619Z,98516.63
2019-02-22T03:08:00.407Z,98514.05
2019-02-22T03:10:27.140Z,98513.70
2019-02-22T03:12:53.942Z,98509.35
2019-02-22T03:15:20.740Z,98517.73
2019-02-22T03:17:47.427Z,98523.39
2019-02-22T03:20:14.110Z,98517.34
2019-02-22T03:22:40.955Z,98515.34
2019-02-22T03:25:07.992Z,98513.11
2019-02-22T03:27:34.875Z,98521.11
2019-02-22T03:30:01.769Z,98527.23
2019-02-22T03:32:28.502Z,98526.17
2019-02-22T03:34:55.118Z,98535.81
2019-02-22T03:37:21.839Z,98532.75
2019-02-22T03:39:48.585Z,98528.11
2019-02-22T03:42:15.398Z,98507.89
2019-02-22T03:44:42.238Z,98521.12
2019-02-22T03:47:08.980Z,98527.88
2019-02-22T03:49:35.831Z,98517.00
2019-02-22T03:52:21.622Z,98520.06
2019-02-22T03:54:49.452Z,98525.64
2019-02-22T03:57:16.425Z,98529.84
2019-02-22T03:59:43.280Z,98536.84
2019-02-22T04:02:10.112Z,98540.17
2019-02-22T04:04:36.965Z,98535.42
2019-02-22T04:07:04.153Z,98543.00
2019-02-22T04:09:31.109Z,98544.65
2019-02-22T04:11:57.722Z,98547.97
2019-02-22T04:14:24.448Z,98539.83
2019-02-22T04:16:51.237Z,98544.97
2019-02-22T04:19:18.121Z,98539.86
2019-02-22T04:21:45.023Z,98544.97
2019-02-22T04:24:11.663Z,98549.82
2019-02-22T04:26:38.550Z,98554.70
2019-02-22T04:29:05.164Z,98554.17
2019-02-22T04:31:32.957Z,98554.11
2019-02-22T04:33:59.812Z,98547.52
2019-02-22T04:36:30.248Z,98536.65
2019-02-22T04:38:57.064Z,98542.52
2019-02-22T04:41:23.823Z,98538.94
2019-02-22T04:43:50.639Z,98536.40
2019-02-22T04:46:18.231Z,98545.20
2019-02-22T04:48:46.281Z,98545.70
2019-02-22T04:51:15.278Z,98545.20
2019-02-22T04:53:42.153Z,98556.08
2019-02-22T04:56:09.012Z,98552.68
2019-02-22T04:58:35.917Z,98557.33
2019-02-22T05:01:02.852Z,98558.67
2019-02-22T05:03:29.644Z,98559.50
2019-02-22T05:05:56.441Z,98567.37
2019-02-22T05:08:23.273Z,98574.38
2019-02-22T05:10:50.028Z,98575.80
2019-02-22T05:13:16.769Z,98582.55
2019-02-22T05:15:43.484Z,98581.53
2019-02-22T05:18:10.306Z,98583.17
2019-02-22T05:20:37.109Z,98588.94
2019-02-22T05:23:06.622Z,98586.53
2019-02-22T05:25:32.583Z,98580.30
2019-02-22T05:27:59.543Z,98581.78
2019-02-22T05:30:26.270Z,98593.94
2019-02-22T05:32:52.964Z,98595.82
2019-02-22T05:35:19.821Z,98592.00
2019-02-22T05:37:46.612Z,98596.05
2019-02-22T05:40:13.417Z,98598.06
2019-02-22T05:42:40.431Z,98595.36
2019-02-22T05:45:07.565Z,98598.95
2019-02-22T05:47:34.390Z,98599.47
2019-02-22T05:50:01.398Z,98600.89
2019-02-22T05:52:27.997Z,98608.77
2019-02-22T05:54:54.746Z,98609.36
2019-02-22T05:57:21.739Z,98609.59
2019-02-22T05:59:48.562Z,98603.36
2019-02-22T06:02:15.277Z,98610.12
2019-02-22T06:04:44.169Z,98612.47
2019-02-22T06:07:10.883Z,98619.69
2019-02-22T06:09:37.729Z,98625.86
2019-02-22T06:12:04.759Z,98631.50
2019-02-22T06:14:31.633Z,98640.44
2019-02-22T06:16:58.390Z,98648.78
2019-02-22T06:19:25.291Z,98646.30
2019-02-22T06:21:51.991Z,98649.67
2019-02-22T06:24:18.670Z,98657.02
2019-02-22T06:26:45.436Z,98662.02
2019-02-22T06:29:15.269Z,98666.67
2019-02-22T06:31:42.110Z,98675.08
2019-02-22T06:34:10.133Z,98675.61
2019-02-22T06:36:36.952Z,98680.72
2019-02-22T06:39:04.750Z,98678.19
2019-02-22T06:41:31.623Z,98677.36
2019-02-22T06:43:58.334Z,98681.72
2019-02-22T06:46:27.848Z,98679.38
2019-02-22T06:48:54.784Z,98680.49
2019-02-22T06:51:21.734Z,98692.95
2019-02-22T06:53:50.733Z,98690.25
2019-02-22T06:56:17.691Z,98693.61
2019-02-22T06:58:44.668Z,98700.56
2019-02-22T07:01:11.349Z,98696.97
2019-02-22T07:03:38.121Z,98701.92
2019-02-22T07:06:05.778Z,98700.17
2019-02-22T07:08:32.801Z,98700.76
2019-02-22T07:11:19.191Z,98702.11
2019-02-22T07:13:46.013Z,98716.85
2019-02-22T07:16:12.979Z,98715.56
2019-02-22T07:18:39.886Z,98717.87
2019-02-22T07:21:07.997Z,98721.75
2019-02-22T07:23:34.934Z,98717.40
2019-02-22T07:26:02.051Z,98725.11
2019-02-22T07:28:28.885Z,98733.88
2019-02-22T07:30:55.498Z,98737.12
2019-02-22T07:33:22.313Z,98732.30
2019-02-22T07:35:49.239Z,98727.73
2019-02-22T07:38:16.118Z,98730.09
2019-02-22T07:40:43.158Z,98738.16
2019-02-22T07:43:10.013Z,98741.37
2019-02-22T07:45:36.871Z,98750.09
2019-02-22T07:48:03.719Z,98753.14
2019-02-22T07:50:30.350Z,98761.22
2019-02-22T07:52:57.353Z,98768.27
2019-02-22T07:55:24.132Z,98773.49
2019-02-22T07:57:50.968Z,98771.84
2019-02-22T08:00:17.770Z,98777.61
2019-02-22T08:02:44.605Z,98774.09
2019-02-22T08:05:11.549Z,98781.97
2019-02-22T08:07:38.197Z,98783.22
2019-02-22T08:10:05.258Z,98783.22
2019-02-22T08:12:31.989Z,98788.06
2019-02-22T08:14:58.713Z,98789.77
2019-02-22T08:17:25.519Z,98794.84
2019-02-22T08:19:52.325Z,98792.31
2019-02-22T08:22:20.700Z,98801.72
2019-02-22T08:24:47.821Z,98795.64
2019-02-22T08:27:14.724Z,98794.78
2019-02-22T08:29:41.555Z,98787.48
2019-02-22T08:32:08.406Z,98790.47
2019-02-22T08:34:35.276Z,98784.26
2019-02-22T08:37:02.218Z,98776.66
2019-02-22T08:39:28.972Z,98785.58
2019-02-22T08:41:55.798Z,98792.41
2019-02-22T08:44:22.554Z,98806.59
2019-02-22T08:46:49.422Z,98807.09
2019-02-22T08:49:16.301Z,98809.20
2019-02-22T08:51:43.138Z,98817.52
2019-02-22T08:54:10.403Z,98821.43
2019-02-22T08:56:37.350Z,98820.86
2019-02-22T08:59:04.357Z,98820.86
2019-02-22T09:01:31.130Z,98827.03
2019-02-22T09:03:57.972Z,98830.04
2019-02-22T09:06:24.976Z,98820.48
2019-02-22T09:09:11.549Z,98829.29
2019-02-22T09:11:38.411Z,98833.52
2019-02-22T09:14:05.021Z,98831.75
2019-02-22T09:16:31.879Z,98832.78
2019-02-22T09:18:58.614Z,98849.85
2019-02-22T09:21:25.526Z,98846.22
2019-02-22T09:23:52.407Z,98848.02
2019-02-22T09:26:19.428Z,98852.42
2019-02-22T09:28:46.186Z,98849.45
2019-02-22T09:31:12.897Z,98846.89
2019-02-22T09:33:39.994Z,98850.31
2019-02-22T09:36:06.760Z,98853.41
2019-02-22T09:38:33.721Z,98856.75
2019-02-22T09:41:00.495Z,98858.59
2019-02-22T09:43:27.307Z,98865.92
2019-02-22T09:45:54.178Z,98872.23
2019-02-22T09:48:21.034Z,98874.02
2019-02-22T09:50:49.353Z,98872.16
2019-02-22T09:53:16.092Z,98882.97
2019-02-22T09:55:42.804Z,98886.05
2019-02-22T09:58:09.529Z,98894.13
2019-02-22T10:00:36.417Z,98884.39
2019-02-22T10:03:03.245Z,98897.05
2019-02-22T10:05:30.603Z,98901.58
2019-02-22T10:07:57.456Z,98900.45
2019-02-22T10:10:24.162Z,98904.00
2019-02-22T10:12:50.907Z,98902.87
2019-02-22T10:15:17.745Z,98904.20
2019-02-22T10:17:44.572Z,98911.70
2019-02-22T10:20:11.411Z,98902.45
2019-02-22T10:22:38.252Z,98910.29
2019-02-22T10:25:05.199Z,98907.50
2019-02-22T10:27:32.181Z,98912.52
2019-02-22T10:29:59.036Z,98907.83
2019-02-22T10:32:25.726Z,98912.17
2019-02-22T10:34:52.589Z,98917.66
2019-02-22T10:37:19.415Z,98915.37
2019-02-22T10:39:46.386Z,98918.09
2019-02-22T10:42:13.173Z,98925.30
2019-02-22T10:44:39.895Z,98920.14
2019-02-22T10:47:06.707Z,98922.83
2019-02-22T10:49:33.429Z,98925.67
2019-02-22T10:52:00.528Z,98930.08
2019-02-22T10:54:27.310Z,98929.31
2019-02-22T10:56:54.186Z,98936.97
2019-02-22T10:59:20.905Z,98935.40
2019-02-22T11:01:48.109Z,98933.52
2019-02-22T11:04:14.962Z,98923.38
2019-02-22T11:06:41.876Z,98927.16
2019-02-22T11:09:08.826Z,98925.45
2019-02-22T11:11:35.671Z,98928.41
2019-02-22T11:14:02.498Z,98929.61
2019-02-22T11:16:29.332Z,98927.27
2019-02-22T11:18:56.104Z,98937.72
2019-02-22T11:21:23.732Z,98939.82
2019-02-22T11:23:51.566Z,98949.95
2019-02-22T11:26:18.323Z,98944.26
2019-02-22T11:28:45.065Z,98946.06
2019-02-22T11:31:11.916Z,98953.21
2019-02-22T11:33:38.631Z,98958.91
2019-02-22T11:36:05.743Z,98957.58
2019-02-22T11:38:32.422Z,98952.16
2019-02-22T11:40:59.133Z,98965.00
2019-02-22T11:43:25.858Z,98967.44
2019-02-22T11:45:52.607Z,98969.80
2019-02-22T11:48:19.442Z,98970.09
2019-02-22T11:50:46.330Z,98970.09
2019-02-22T11:53:13.101Z,98965.53
2019-02-22T11:55:41.092Z,98963.91
2019-02-22T11:58:08.073Z,98969.38
2019-02-22T12:00:34.940Z,98977.38
2019-02-22T12:03:15.775Z,98977.09
2019-02-22T12:05:36.436Z,98981.44
2019-02-22T12:08:03.691Z,98981.55
2019-02-22T12:10:30.383Z,98980.98
2019-02-22T12:12:57.335Z,98983.48
2019-02-22T12:15:24.205Z,98984.83
2019-02-22T12:17:51.109Z,98989.42
2019-02-22T12:20:17.936Z,98982.56
2019-02-22T12:22:44.788Z,98987.55
2019-02-22T12:25:11.806Z,98983.45
2019-02-22T12:27:38.598Z,98983.52
2019-02-22T12:30:07.919Z,98988.47
2019-02-22T12:32:35.317Z,98993.86
2019-02-22T12:35:02.816Z,99003.92
2019-02-22T12:37:30.315Z,99001.66
2019-02-22T12:40:01.393Z,99004.47
2019-02-22T12:42:28.606Z,99009.28
2019-02-22T12:45:02.883Z,99005.44
2019-02-22T12:47:25.297Z,99006.59
2019-02-22T12:49:52.482Z,99002.64
2019-02-22T12:52:19.664Z,99006.87
2019-02-22T12:54:46.862Z,99008.78
2019-02-22T12:57:13.772Z,99010.67
2019-02-22T12:59:41.063Z,99007.16
2019-02-22T13:02:08.257Z,99011.23
2019-02-22T13:04:36.663Z,99007.39
2019-02-22T13:07:03.662Z,99011.23
2019-02-22T13:09:36.248Z,99009.45
2019-02-22T13:11:59.550Z,99014.11
2019-02-22T13:14:26.627Z,99024.18
2019-02-22T13:16:55.473Z,99022.97
2019-02-22T13:19:24.943Z,99025.98
2019-02-22T13:21:52.097Z,99032.34
2019-02-22T13:24:19.360Z,99031.29
2019-02-22T13:26:46.589Z,99035.39
2019-02-22T13:29:19.029Z,99036.57
2019-02-22T13:31:46.585Z,99039.56
2019-02-22T13:34:14.055Z,99048.30
2019-02-22T13:36:40.990Z,99050.95
2019-02-22T13:39:08.126Z,99051.47
2019-02-22T13:41:35.973Z,99046.34
2019-02-22T13:44:03.345Z,99045.79
2019-02-22T13:46:30.743Z,99052.48
2019-02-22T13:48:57.930Z,99048.72
2019-02-22T13:51:25.736Z,99059.66
2019-02-22T13:53:52.928Z,99058.81
2019-02-22T13:56:29.585Z,99062.63
2019-02-22T13:58:54.272Z,99060.94
2019-02-22T14:01:21.481Z,99062.30
2019-02-22T14:03:49.037Z,99065.77
2019-02-22T14:06:16.488Z,99066.16
2019-02-22T14:08:43.817Z,99081.27
2019-02-22T14:11:12.078Z,99078.38
2019-02-22T14:13:39.510Z,99079.34
2019-02-22T14:16:08.978Z,99084.23
2019-02-22T14:18:36.347Z,99091.65
2019-02-22T14:21:03.334Z,99089.69
2019-02-22T14:23:30.043Z,99094.93
2019-02-22T14:25:56.812Z,99094.00
2019-02-22T14:28:23.575Z,99100.19
2019-02-22T14:30:50.408Z,99111.98
2019-02-22T14:33:17.261Z,99118.22
2019-02-22T14:35:44.143Z,99115.66
2019-02-22T14:38:11.203Z,99110.05
2019-02-22T14:40:38.033Z,99100.66
2019-02-22T14:43:15.787Z,99104.80
2019-02-22T14:45:33.584Z,99098.38
2019-02-22T14:48:00.277Z,99098.53
2019-02-22T14:50:27.070Z,99102.48
2019-02-22T14:52:53.788Z,99106.94
2019-02-22T14:55:20.756Z,99106.28
2019-02-22T14:57:47.548Z,99105.53
2019-02-22T15:00:15.227Z,99107.85
2019-02-22T15:02:41.933Z,99113.78
2019-02-22T15:05:40.524Z,99120.78
2019-02-22T15:08:07.923Z,99115.37
2019-02-22T15:10:35.961Z,99127.63
2019-02-22T15:13:02.827Z,99118.81
2019-02-22T15:15:40.023Z,99124.61
2019-02-22T15:18:07.229Z,99124.94
2019-02-22T15:20:34.112Z,99131.38
2019-02-22T15:23:02.621Z,99140.92
2019-02-22T15:25:31.016Z,99142.80
2019-02-22T15:27:57.767Z,99140.25
2019-02-22T15:30:24.753Z,99142.01
2019-02-22T15:32:51.666Z,99149.58
2019-02-22T15:35:18.464Z,99147.46
2019-02-22T15:37:45.204Z,99154.95
2019-02-22T15:40:12.195Z,99159.09
2019-02-22T15:42:40.603Z,99164.42
2019-02-22T15:45:08.824Z,99165.91
2019-02-22T15:47:35.624Z,99176.01
2019-02-22T15:50:02.480Z,99171.52
2019-02-22T15:52:31.544Z,99184.77
2019-02-22T15:54:58.161Z,99184.56
2019-02-22T15:57:25.270Z,99191.11
2019-02-22T15:59:52.191Z,99190.59
2019-02-22T16:02:20.256Z,99199.21
2019-02-22T16:04:56.617Z,99195.61
2019-02-22T16:07:24.506Z,99198.78
2019-02-22T16:09:51.324Z,99197.64
2019-02-22T16:12:18.168Z,99201.19
2019-02-22T16:15:00.670Z,99203.53
2019-02-22T16:17:37.143Z,99203.70
2019-02-22T16:20:04.164Z,99204.19
2019-02-22T16:22:31.016Z,99205.95
2019-02-22T16:24:58.140Z,99209.66
2019-02-22T16:27:25.218Z,99213.70
2019-02-22T16:29:52.052Z,99217.78
2019-02-22T16:32:20.756Z,99217.79
2019-02-22T16:34:47.504Z,99221.22
2019-02-22T16:37:14.386Z,99215.72
2019-02-22T16:39:42.328Z,99226.86
2019-02-22T16:42:10.413Z,99225.88
2019-02-22T16:44:37.291Z,99232.77
2019-02-22T16:47:04.061Z,99238.33
2019-02-22T16:49:30.804Z,99239.30
2019-02-22T16:51:57.649Z,99244.87
2019-02-22T16:54:24.422Z,99249.91
2019-02-22T16:56:51.646Z,99255.69
2019-02-22T16:59:18.520Z,99261.71
2019-02-22T17:01:45.532Z,99263.16
2019-02-22T17:04:12.381Z,99270.16
2019-02-22T17:06:39.118Z,99270.67
2019-02-22T17:09:05.804Z,99272.23
2019-02-22T17:11:32.643Z,99275.38
2019-02-22T17:13:59.652Z,99287.56
2019-02-22T17:16:28.722Z,99288.36
2019-02-22T17:18:56.406Z,99297.84
2019-02-22T17:21:23.287Z,99298.44
2019-02-22T17:23:50.160Z,99301.50
2019-02-22T17:26:17.011Z,99308.80
2019-02-22T17:28:43.838Z,99309.67
2019-02-22T17:31:10.675Z,99313.03
2019-02-22T17:33:37.392Z,99316.66
2019-02-22T17:36:04.229Z,99317.61
2019-02-22T17:38:34.008Z,99320.93
2019-02-22T17:41:00.815Z,99323.63
2019-02-22T17:43:27.746Z,99338.07
2019-02-22T17:45:54.440Z,99339.98
2019-02-22T17:48:21.376Z,99344.87
2019-02-22T17:50:48.228Z,99346.48
2019-02-22T17:53:16.025Z,99346.81
2019-02-22T17:55:42.902Z,99349.00
2019-02-22T17:58:09.606Z,99358.81
2019-02-22T18:00:36.502Z,99363.72
2019-02-22T18:03:03.313Z,99363.41
2019-02-22T18:05:30.150Z,99365.75
2019-02-22T18:07:57.099Z,99369.19
2019-02-22T18:10:23.930Z,99370.54
2019-02-22T18:12:50.947Z,99374.80
2019-02-22T18:15:17.841Z,99377.35
2019-02-22T18:17:44.702Z,99379.53
2019-02-22T18:20:11.423Z,99386.00
2019-02-22T18:22:38.372Z,99388.61
2019-02-22T18:25:05.741Z,99395.67
2019-02-22T18:27:32.736Z,99395.50
2019-02-22T18:29:59.523Z,99395.09
2019-02-22T18:32:26.246Z,99396.23
2019-02-22T18:34:53.077Z,99398.55
2019-02-22T18:37:20.043Z,99405.42
2019-02-22T18:39:47.914Z,99412.08
2019-02-22T18:42:14.723Z,99414.37
2019-02-22T18:44:42.029Z,99418.11
2019-02-22T18:47:18.803Z,99422.69
2019-02-22T18:49:37.565Z,99429.55
2019-02-22T18:52:06.946Z,99428.20
2019-02-22T18:54:33.927Z,99426.06
2019-02-22T18:57:00.819Z,99432.08
2019-02-22T18:59:27.699Z,99431.56
2019-02-22T19:01:54.505Z,99437.82
2019-02-22T19:04:21.354Z,99436.78
2019-02-22T19:06:48.192Z,99441.95
2019-02-22T19:09:15.280Z,99441.11
2019-02-22T19:11:42.395Z,99446.02
2019-02-22T19:14:09.318Z,99458.48
2019-02-22T19:16:36.184Z,99459.00
2019-02-22T19:19:03.007Z,99459.52
2019-02-22T19:21:29.796Z,99462.00
2019-02-22T19:23:56.709Z,99460.55
2019-02-22T19:26:25.817Z,99460.23
2019-02-22T19:28:52.621Z,99461.05
2019-02-22T19:31:19.581Z,99465.29
2019-02-22T19:33:46.442Z,99465.38
2019-02-22T19:36:13.162Z,99471.20
2019-02-22T19:38:40.022Z,99476.97
2019-02-22T19:41:07.223Z,99478.06
2019-02-22T19:43:34.238Z,99484.45
2019-02-22T19:46:01.090Z,99494.64
2019-02-22T19:48:27.972Z,99498.27
2019-02-22T19:50:54.713Z,99499.83
2019-02-22T19:53:21.644Z,99501.88
2019-02-22T19:55:48.477Z,99498.59
2019-02-22T19:58:15.177Z,99500.84
2019-02-22T20:00:42.241Z,99504.32
2019-02-22T20:03:09.087Z,99508.41
2019-02-22T20:05:35.991Z,99521.17
2019-02-22T20:08:02.816Z,99527.81
2019-02-22T20:10:30.400Z,99528.11
2019-02-22T20:12:57.092Z,99542.20
2019-02-22T20:15:24.099Z,99537.76
2019-02-22T20:17:54.661Z,99543.19
2019-02-22T20:20:19.788Z,99549.48
2019-02-22T20:22:46.726Z,99543.22
2019-02-22T20:25:13.660Z,99547.48
2019-02-22T20:27:42.605Z,99546.05
2019-02-22T20:30:11.426Z,99554.61
2019-02-22T20:32:38.540Z,99565.20
2019-02-22T20:35:07.465Z,99566.58
2019-02-22T20:37:34.567Z,99573.08
2019-02-22T20:40:03.875Z,99580.88
2019-02-22T20:42:34.862Z,99578.62
2019-02-22T20:45:01.861Z,99588.59
2019-02-22T20:47:41.750Z,99590.22
2019-02-22T20:50:14.643Z,99598.98
2019-02-22T20:52:45.577Z,99599.31
2019-02-22T20:55:14.541Z,99613.47
2019-02-22T20:57:42.298Z,99617.17
2019-02-22T21:00:11.139Z,99622.95
2019-02-22T21:02:39.091Z,99619.30
2019-02-22T21:05:07.068Z,99616.16
2019-02-22T21:07:34.917Z,99612.39
2019-02-22T21:10:02.124Z,99613.42
2019-02-22T21:12:28.983Z,99618.47
2019-02-22T21:14:55.781Z,99625.53
2019-02-22T21:17:23.591Z,99632.59
2019-02-22T21:19:50.523Z,99637.97
2019-02-22T21:22:17.442Z,99635.02
2019-02-22T21:24:46.370Z,99643.57
2019-02-22T21:27:23.094Z,99631.88
2019-02-22T21:29:50.851Z,99635.57
2019-02-22T21:32:17.720Z,99634.28
2019-02-22T21:34:45.574Z,99638.48
2019-02-22T21:37:12.448Z,99646.20
2019-02-22T21:39:39.153Z,99640.19
2019-02-22T21:42:05.909Z,99638.02
2019-02-22T21:44:32.608Z,99648.55
2019-02-22T21:46:59.378Z,99655.59
2019-02-22T21:49:26.231Z,99661.67
2019-02-22T21:51:52.951Z,99667.37
2019-02-22T21:54:19.994Z,99673.06
2019-02-22T21:56:47.031Z,99665.39
2019-02-22T21:59:14.767Z,99669.25
2019-02-22T22:01:45.073Z,99673.27
2019-02-22T22:04:12.867Z,99669.75
2019-02-22T22:06:39.869Z,99667.59
2019-02-22T22:09:06.747Z,99675.95
2019-02-22T22:11:36.219Z,99675.11
2019-02-22T22:14:09.088Z,99679.97
2019-02-22T22:16:41.884Z,99682.13
2019-02-22T22:19:08.634Z,99682.78
2019-02-22T22:21:35.595Z,99689.80
2019-02-22T22:24:08.148Z,99691.45
2019-02-22T22:26:44.514Z,99692.97
2019-02-22T22:29:18.825Z,99693.14
2019-02-22T22:31:50.485Z,99696.46
2019-02-22T22:34:17.450Z,99695.78
2019-02-22T22:36:44.314Z,99698.95
2019-02-22T22:39:16.001Z,99693.09
2019-02-22T22:41:42.794Z,99699.91
2019-02-22T22:44:10.661Z,99703.25
2019-02-22T22:46:37.494Z,99704.73
2019-02-22T22:49:05.648Z,99713.23
2019-02-22T22:51:32.555Z,99708.70
2019-02-22T22:53:59.463Z,99712.50
2019-02-22T22:56:26.178Z,99708.33
2019-02-22T22:58:52.995Z,99700.94
2019-02-22T23:01:24.257Z,99700.23
2019-02-22T23:03:51.234Z,99703.72
2019-02-22T23:06:17.995Z,99705.38
2019-02-22T23:08:44.683Z,99707.86
2019-02-22T23:11:11.501Z,99712.16
2019-02-22T23:13:38.317Z,99711.66
2019-02-22T23:16:05.868Z,99702.09
2019-02-22T23:18:33.080Z,99694.22
2019-02-22T23:20:59.795Z,99698.23
2019-02-22T23:23:26.573Z,99699.71
2019-02-22T23:25:53.366Z,99705.86
2019-02-22T23:28:20.217Z,99707.69
2019-02-22T23:30:47.114Z,99701.48
2019-02-22T23:33:13.821Z,99694.59
2019-02-22T23:35:40.518Z,99691.45
2019-02-22T23:38:07.286Z,99685.75
2019-02-22T23:40:34.080Z,99687.39
2019-02-22T23:43:00.668Z,99695.55
2019-02-22T23:45:27.652Z,99690.40
2019-02-22T23:47:54.326Z,99689.53
2019-02-22T23:50:21.146Z,99691.52
2019-02-22T23:52:47.837Z,99697.47
2019-02-22T23:55:14.576Z,99708.41
2019-02-22T23:57:41.275Z,99714.34
